createdAt,value
2019-01-21T00:02:20.346Z,84.26
2019-01-21T00:04:51.617Z,84.32
2019-01-21T00:07:24.523Z,84.32
2019-01-21T00:09:55.335Z,84.58
2019-01-21T00:12:26.640Z,84.59
2019-01-21T00:15:00.595Z,84.49
2019-01-21T00:17:31.731Z,84.41
2019-01-21T00:20:05.367Z,84.27
2019-01-21T00:22:35.695Z,84.06
2019-01-21T00:25:09.306Z,84.14
2019-01-21T00:27:39.862Z,84.33
2019-01-21T00:30:13.206Z,84.74
2019-01-21T00:32:43.443Z,84.73
2019-01-21T00:35:18.163Z,84.84
2019-01-21T00:37:48.557Z,84.65
2019-01-21T00:40:20.299Z,84.57
2019-01-21T00:42:50.444Z,84.58
2019-01-21T00:45:20.882Z,84.56
2019-01-21T00:47:51.804Z,84.67
2019-01-21T00:50:22.234Z,84.88
2019-01-21T00:52:52.962Z,85.02
2019-01-21T00:55:22.840Z,85.38
2019-01-21T00:57:53.308Z,85.26
2019-01-21T01:00:25.051Z,85.27
2019-01-21T01:02:56.561Z,85.57
2019-01-21T01:05:31.163Z,85.39
2019-01-21T01:08:02.665Z,85.28
2019-01-21T01:10:34.718Z,84.99
2019-01-21T01:13:04.713Z,84.82
2019-01-21T01:15:35.077Z,84.40
2019-01-21T01:18:05.041Z,84.56
2019-01-21T01:20:37.980Z,84.50
2019-01-21T01:23:07.906Z,84.33
2019-01-21T01:25:38.091Z,83.96
2019-01-21T01:28:08.680Z,84.04
2019-01-21T01:30:41.692Z,84.20
2019-01-21T01:33:12.470Z,84.38
2019-01-21T01:35:42.880Z,84.56
2019-01-21T01:38:12.801Z,84.17
2019-01-21T01:40:44.329Z,84.38
2019-01-21T01:43:16.856Z,84.53
2019-01-21T01:45:47.719Z,84.43
2019-01-21T01:48:18.256Z,84.40
2019-01-21T01:50:52.322Z,84.57
2019-01-21T01:53:22.583Z,84.25
2019-01-21T01:55:55.443Z,84.60
2019-01-21T01:58:26.531Z,84.49
2019-01-21T02:00:59.673Z,84.55
2019-01-21T02:03:29.573Z,84.67
2019-01-21T02:06:00.176Z,84.44
2019-01-21T02:08:31.316Z,84.27
2019-01-21T02:11:03.381Z,84.26
2019-01-21T02:13:33.770Z,84.20
2019-01-21T02:16:04.036Z,84.25
2019-01-21T02:18:35.480Z,83.85
2019-01-21T02:21:09.292Z,83.95
2019-01-21T02:23:39.819Z,83.97
2019-01-21T02:26:10.904Z,83.83
2019-01-21T02:28:47.973Z,83.35
2019-01-21T02:31:37.672Z,83.50
2019-01-21T02:34:27.541Z,83.40
2019-01-21T02:37:13.296Z,84.22
2019-01-21T02:40:19.372Z,84.71
2019-01-21T02:43:11.343Z,84.64
2019-01-21T02:46:00.845Z,84.95
2019-01-21T02:48:59.979Z,85.11
2019-01-21T02:51:51.587Z,85.28
2019-01-21T02:54:33.265Z,85.29
2019-01-21T02:57:15.644Z,85.19
2019-01-21T02:59:51.969Z,85.45
2019-01-21T03:02:44.021Z,85.83
2019-01-21T03:05:25.972Z,86.20
2019-01-21T03:08:05.055Z,86.06
2019-01-21T03:10:51.950Z,86.11
2019-01-21T03:13:25.179Z,85.93
2019-01-21T03:16:10.827Z,86.11
2019-01-21T03:19:12.778Z,86.28
2019-01-21T03:22:11.793Z,86.40
2019-01-21T03:25:08.376Z,86.29
2019-01-21T03:27:59.357Z,86.48
2019-01-21T03:30:38.512Z,86.54
2019-01-21T03:33:27.622Z,86.44
2019-01-21T03:36:35.245Z,86.08
2019-01-21T03:39:31.080Z,86.07
2019-01-21T03:42:16.175Z,86.08
2019-01-21T03:45:21.746Z,85.92
2019-01-21T03:47:56.379Z,85.93
2019-01-21T03:50:47.821Z,85.99
2019-01-21T03:53:33.901Z,85.95
2019-01-21T03:56:09.895Z,85.93
2019-01-21T03:59:05.437Z,85.78
2019-01-21T04:01:46.899Z,86.17
2019-01-21T04:04:35.370Z,86.29
2019-01-21T04:07:10.456Z,86.37
2019-01-21T04:09:49.750Z,86.39
2019-01-21T04:12:31.872Z,86.35
2019-01-21T04:15:14.071Z,85.99
2019-01-21T04:17:47.535Z,85.96
2019-01-21T04:20:48.350Z,86.04
2019-01-21T04:23:27.994Z,86.13
2019-01-21T04:26:02.647Z,86.50
2019-01-21T04:28:54.670Z,86.65
2019-01-21T04:31:34.161Z,86.67
2019-01-21T04:34:07.575Z,86.50
2019-01-21T04:36:58.326Z,86.72
2019-01-21T04:39:46.782Z,86.50
2019-01-21T04:42:29.364Z,86.74
2019-01-21T04:45:05.706Z,86.71
2019-01-21T04:47:51.140Z,86.92
2019-01-21T04:50:59.702Z,86.80
2019-01-21T04:57:00.810Z,86.59
2019-01-21T05:00:28.851Z,85.91
2019-01-21T05:03:14.254Z,86.09
2019-01-21T05:05:45.582Z,85.96
2019-01-21T05:08:45.796Z,85.57
2019-01-21T05:11:30.744Z,85.79
2019-01-21T05:14:15.634Z,85.30
2019-01-21T05:17:09.976Z,84.93
2019-01-21T05:19:48.917Z,85.07
2019-01-21T05:22:22.939Z,84.73
2019-01-21T05:25:23.903Z,85.01
2019-01-21T05:28:06.911Z,85.02
2019-01-21T05:30:51.009Z,84.92
2019-01-21T05:33:36.496Z,85.07
2019-01-21T05:36:15.788Z,84.79
2019-01-21T05:39:04.132Z,84.90
2019-01-21T05:41:57.070Z,85.15
2019-01-21T05:44:36.002Z,85.04
2019-01-21T05:47:25.644Z,84.77
2019-01-21T05:50:12.368Z,84.72
2019-01-21T05:52:57.492Z,84.42
2019-01-21T05:55:42.139Z,84.64
2019-01-21T05:58:33.515Z,84.44
2019-01-21T06:01:09.480Z,84.05
2019-01-21T06:03:42.480Z,83.71
2019-01-21T06:06:24.491Z,84.06
2019-01-21T06:09:04.052Z,83.18
2019-01-21T06:11:58.623Z,83.43
2019-01-21T06:15:06.687Z,83.82
2019-01-21T06:17:52.183Z,83.30
2019-01-21T06:20:28.231Z,83.42
2019-01-21T06:23:04.453Z,83.73
2019-01-21T06:25:47.743Z,83.54
2019-01-21T06:28:38.833Z,83.46
2019-01-21T06:31:18.261Z,83.81
2019-01-21T06:34:01.821Z,83.92
2019-01-21T06:37:07.547Z,83.15
2019-01-21T06:40:16.060Z,83.30
2019-01-21T06:43:30.663Z,83.67
2019-01-21T06:46:06.635Z,83.28
2019-01-21T06:49:04.720Z,82.96
2019-01-21T06:51:52.842Z,83.18
2019-01-21T06:54:52.843Z,83.18
2019-01-21T06:57:56.998Z,83.55
2019-01-21T07:00:36.408Z,83.39
2019-01-21T07:03:19.144Z,83.21
2019-01-21T07:06:18.070Z,83.39
2019-01-21T07:09:17.512Z,83.03
2019-01-21T07:11:55.259Z,83.30
2019-01-21T07:14:45.569Z,83.41
2019-01-21T07:17:44.445Z,82.69
2019-01-21T07:20:39.502Z,82.45
2019-01-21T07:23:23.778Z,82.75
2019-01-21T07:26:09.167Z,82.06
2019-01-21T07:28:59.996Z,82.41
2019-01-21T07:31:41.752Z,82.27
2019-01-21T07:34:20.807Z,82.08
2019-01-21T07:37:00.235Z,82.31
2019-01-21T07:43:09.012Z,81.91
2019-01-21T07:45:52.586Z,82.76
2019-01-21T07:48:32.837Z,82.91
2019-01-21T07:51:17.264Z,83.04
2019-01-21T07:53:57.993Z,82.48
2019-01-21T07:57:00.909Z,82.21
2019-01-21T07:59:40.527Z,82.14
2019-01-21T08:02:20.481Z,81.90
2019-01-21T08:05:08.390Z,81.51
2019-01-21T08:08:02.317Z,82.07
2019-01-21T08:10:41.476Z,82.04
2019-01-21T08:13:29.496Z,80.87
2019-01-21T08:16:35.787Z,80.46
2019-01-21T08:19:34.759Z,81.72
2019-01-21T08:22:25.916Z,81.87
2019-01-21T08:25:08.368Z,81.54
2019-01-21T08:27:50.206Z,82.90
2019-01-21T08:30:40.832Z,83.22
2019-01-21T08:33:16.599Z,82.77
2019-01-21T08:35:55.480Z,83.35
2019-01-21T08:38:40.420Z,82.83
2019-01-21T08:41:28.626Z,82.41
2019-01-21T08:44:19.969Z,82.87
2019-01-21T08:47:05.018Z,82.97
2019-01-21T08:49:38.198Z,83.06
2019-01-21T08:52:23.489Z,83.34
2019-01-21T08:54:56.794Z,83.08
2019-01-21T08:58:04.602Z,83.32
2019-01-21T09:00:55.994Z,83.37
2019-01-21T09:03:48.657Z,83.35
2019-01-21T09:06:40.175Z,83.48
2019-01-21T09:09:16.103Z,83.07
2019-01-21T09:12:08.952Z,83.42
2019-01-21T09:15:10.688Z,83.14
2019-01-21T09:17:46.339Z,82.79
2019-01-21T09:20:22.832Z,82.41
2019-01-21T09:23:05.248Z,82.43
2019-01-21T09:25:44.991Z,81.15
2019-01-21T09:28:27.522Z,81.36
2019-01-21T09:31:12.863Z,81.10
2019-01-21T09:33:48.833Z,81.15
2019-01-21T09:36:39.584Z,81.30
2019-01-21T09:39:25.157Z,81.47
2019-01-21T09:42:18.074Z,81.47
2019-01-21T09:45:00.013Z,81.28
2019-01-21T09:47:29.074Z,80.24
2019-01-21T09:49:59.092Z,79.99
2019-01-21T09:52:29.176Z,80.00
2019-01-21T09:54:59.330Z,80.03
2019-01-21T09:57:29.642Z,80.20
2019-01-21T09:59:59.926Z,80.45
2019-01-21T10:02:33.336Z,80.75
2019-01-21T10:05:03.342Z,80.66
2019-01-21T10:07:36.865Z,80.72
2019-01-21T10:10:16.171Z,81.08
2019-01-21T10:13:16.814Z,81.19
2019-01-21T10:16:09.505Z,81.46
2019-01-21T10:18:45.125Z,81.12
2019-01-21T10:21:23.786Z,81.30
2019-01-21T10:24:06.085Z,81.14
2019-01-21T10:26:56.119Z,80.97
2019-01-21T10:29:42.446Z,80.97
2019-01-21T10:32:31.056Z,80.67
2019-01-21T10:35:13.846Z,80.20
2019-01-21T10:37:53.174Z,80.15
2019-01-21T10:40:36.168Z,79.75
2019-01-21T10:43:12.993Z,79.70
2019-01-21T10:46:04.652Z,79.64
2019-01-21T10:48:49.528Z,79.41
2019-01-21T10:51:26.098Z,79.83
2019-01-21T10:53:59.935Z,80.45
2019-01-21T10:56:39.377Z,81.20
2019-01-21T10:59:43.059Z,81.61
2019-01-21T11:02:38.317Z,81.27
2019-01-21T11:05:24.456Z,82.01
2019-01-21T11:08:21.481Z,81.81
2019-01-21T11:11:04.219Z,81.67
2019-01-21T11:13:44.373Z,82.03
2019-01-21T11:16:17.586Z,81.98
2019-01-21T11:18:53.966Z,81.76
2019-01-21T11:21:27.320Z,81.50
2019-01-21T11:24:26.161Z,81.35
2019-01-21T11:27:11.945Z,81.31
2019-01-21T11:30:02.261Z,81.26
2019-01-21T11:32:51.210Z,81.65
2019-01-21T11:35:33.428Z,81.58
2019-01-21T11:38:18.893Z,82.02
2019-01-21T11:41:04.541Z,82.09
2019-01-21T11:43:40.779Z,82.02
2019-01-21T11:46:24.101Z,81.21
2019-01-21T11:49:04.584Z,80.99
2019-01-21T11:51:40.609Z,80.68
2019-01-21T11:54:22.838Z,81.01
2019-01-21T11:57:13.983Z,81.19
2019-01-21T11:59:49.670Z,81.44
2019-01-21T12:02:22.747Z,82.07
2019-01-21T12:05:01.438Z,82.46
2019-01-21T12:07:59.042Z,82.08
2019-01-21T12:10:48.530Z,81.95
2019-01-21T12:13:36.838Z,82.30
2019-01-21T12:16:16.019Z,82.24
2019-01-21T12:18:52.477Z,82.18
2019-01-21T12:21:40.695Z,82.28
2019-01-21T12:24:14.046Z,82.43
2019-01-21T12:26:59.766Z,82.53
2019-01-21T12:29:39.737Z,82.63
2019-01-21T12:32:25.151Z,82.23
2019-01-21T12:35:17.215Z,82.90
2019-01-21T12:37:53.659Z,82.95
2019-01-21T12:40:29.870Z,82.98
2019-01-21T12:43:08.403Z,82.97
2019-01-21T12:46:05.233Z,83.11
2019-01-21T12:48:46.816Z,83.02
2019-01-21T12:51:28.749Z,83.00
2019-01-21T12:54:23.716Z,83.47
2019-01-21T12:57:11.575Z,83.58
2019-01-21T12:59:47.640Z,83.55
2019-01-21T13:02:35.424Z,83.68
2019-01-21T13:05:26.998Z,83.66
2019-01-21T13:08:12.325Z,83.55
2019-01-21T13:10:45.790Z,83.50
2019-01-21T13:13:27.663Z,83.60
2019-01-21T13:16:12.299Z,83.08
2019-01-21T13:18:51.587Z,82.92
2019-01-21T13:21:52.765Z,82.74
2019-01-21T13:24:46.957Z,83.03
2019-01-21T13:27:49.394Z,83.00
2019-01-21T13:30:25.342Z,83.11
2019-01-21T13:33:07.246Z,83.29
2019-01-21T13:35:53.107Z,83.55
2019-01-21T13:38:45.458Z,83.70
2019-01-21T13:41:27.205Z,83.88
2019-01-21T13:44:12.098Z,83.96
2019-01-21T13:47:08.416Z,84.23
2019-01-21T13:49:50.678Z,84.77
2019-01-21T13:52:37.806Z,85.07
2019-01-21T13:55:17.050Z,85.53
2019-01-21T13:58:07.378Z,85.68
2019-01-21T14:00:55.953Z,85.82
2019-01-21T14:03:37.838Z,85.84
2019-01-21T14:06:18.114Z,86.01
2019-01-21T14:08:53.440Z,86.10
2019-01-21T14:11:35.854Z,86.49
2019-01-21T14:14:11.830Z,86.80
2019-01-21T14:16:54.298Z,87.21
2019-01-21T14:19:33.080Z,87.26
2019-01-21T14:22:20.024Z,87.24
2019-01-21T14:25:16.610Z,87.33
2019-01-21T14:28:25.746Z,87.32
2019-01-21T14:31:07.756Z,87.42
2019-01-21T14:33:58.980Z,87.56
2019-01-21T14:36:35.521Z,87.60
2019-01-21T14:39:09.550Z,87.82
2019-01-21T14:42:08.488Z,87.77
2019-01-21T14:45:04.151Z,87.86
2019-01-21T14:47:40.129Z,87.86
2019-01-21T14:50:35.829Z,87.91
2019-01-21T14:53:18.218Z,88.15
2019-01-21T14:55:54.462Z,88.04
2019-01-21T14:58:27.839Z,88.17
2019-01-21T15:01:16.186Z,88.19
2019-01-21T15:03:51.857Z,88.03
2019-01-21T15:06:39.799Z,87.97
2019-01-21T15:09:30.551Z,88.11
2019-01-21T15:12:22.402Z,88.30
2019-01-21T15:15:29.772Z,88.14
2019-01-21T15:18:22.927Z,88.13
2019-01-21T15:21:11.500Z,87.97
2019-01-21T15:24:12.472Z,88.00
2019-01-21T15:27:00.594Z,87.85
2019-01-21T15:29:39.690Z,88.02
2019-01-21T15:32:36.796Z,88.09
2019-01-21T15:35:12.700Z,88.34
2019-01-21T15:38:06.770Z,88.36
2019-01-21T15:41:09.964Z,88.45
2019-01-21T15:43:43.086Z,88.55
2019-01-21T15:46:19.584Z,88.55
2019-01-21T15:48:54.327Z,88.89
2019-01-21T15:51:33.979Z,89.03
2019-01-21T15:54:32.580Z,88.96
2019-01-21T15:57:33.276Z,89.27
2019-01-21T16:00:27.226Z,89.38
2019-01-21T16:03:35.300Z,89.47
2019-01-21T16:06:21.202Z,89.58
2019-01-21T16:09:11.212Z,89.71
2019-01-21T16:11:56.955Z,89.78
2019-01-21T16:14:30.249Z,89.92
2019-01-21T16:17:06.610Z,89.78
2019-01-21T16:19:36.905Z,89.76
2019-01-21T16:22:18.687Z,89.84
2019-01-21T16:25:03.714Z,89.91
2019-01-21T16:27:39.376Z,89.73
2019-01-21T16:30:27.701Z,89.77
2019-01-21T16:33:09.840Z,89.81
2019-01-21T16:35:45.567Z,89.92
2019-01-21T16:38:18.383Z,89.93
2019-01-21T16:40:51.668Z,89.90
2019-01-21T16:43:21.431Z,89.98
2019-01-21T16:45:51.274Z,89.92
2019-01-21T16:48:21.279Z,89.95
2019-01-21T16:50:51.424Z,89.92
2019-01-21T16:53:21.715Z,89.90
2019-01-21T16:55:51.759Z,89.89
2019-01-21T16:58:21.587Z,90.03
2019-01-21T17:00:51.289Z,90.10
2019-01-21T17:03:21.524Z,90.07
2019-01-21T17:05:51.446Z,89.91
2019-01-21T17:08:21.512Z,89.96
2019-01-21T17:10:51.836Z,90.03
2019-01-21T17:13:22.707Z,90.02
2019-01-21T17:15:52.835Z,90.04
2019-01-21T17:18:22.702Z,90.10
2019-01-21T17:20:57.078Z,90.31
2019-01-21T17:23:28.224Z,90.26
2019-01-21T17:26:20.627Z,90.35
2019-01-21T17:29:02.784Z,90.41
2019-01-21T17:31:45.752Z,90.45
2019-01-21T17:34:33.742Z,90.44
2019-01-21T17:37:16.496Z,90.57
2019-01-21T17:40:00.223Z,90.75
2019-01-21T17:42:43.746Z,90.93
2019-01-21T17:45:19.321Z,90.90
2019-01-21T17:48:07.835Z,93.33
2019-01-21T17:50:37.751Z,91.22
2019-01-21T17:53:14.491Z,91.28
2019-01-21T17:55:44.369Z,91.24
2019-01-21T17:58:15.976Z,91.41
2019-01-21T18:00:45.835Z,91.40
2019-01-21T18:03:20.753Z,91.44
2019-01-21T18:06:36.548Z,91.48
2019-01-21T18:09:28.414Z,91.47
2019-01-21T18:12:01.585Z,91.54
2019-01-21T18:14:37.812Z,91.51
2019-01-21T18:17:08.378Z,91.61
2019-01-21T18:19:43.594Z,91.65
2019-01-21T18:22:20.370Z,91.65
2019-01-21T18:24:54.246Z,91.64
2019-01-21T18:27:27.531Z,91.69
2019-01-21T18:29:59.294Z,91.71
2019-01-21T18:32:33.536Z,91.71
2019-01-21T18:35:09.542Z,91.72
2019-01-21T18:37:43.006Z,91.78
2019-01-21T18:40:20.617Z,91.89
2019-01-21T18:43:09.765Z,91.90
2019-01-21T18:45:42.398Z,91.90
2019-01-21T18:48:16.638Z,91.88
2019-01-21T18:51:09.365Z,92.01
2019-01-21T18:54:03.025Z,92.51
2019-01-21T18:56:46.157Z,92.52
2019-01-21T18:59:16.866Z,92.54
2019-01-21T19:01:46.922Z,92.54
2019-01-21T19:04:19.171Z,92.54
2019-01-21T19:06:49.351Z,92.56
2019-01-21T19:09:19.592Z,92.53
2019-01-21T19:11:49.653Z,93.19
2019-01-21T19:14:23.708Z,92.79
2019-01-21T19:16:54.190Z,92.73
2019-01-21T19:19:24.417Z,92.72
2019-01-21T19:21:54.440Z,92.69
2019-01-21T19:24:24.370Z,92.69
2019-01-21T19:26:54.252Z,92.69
2019-01-21T19:29:25.003Z,92.67
2019-01-21T19:31:55.083Z,92.71
2019-01-21T19:34:25.335Z,92.72
2019-01-21T19:36:55.607Z,92.75
2019-01-21T19:39:26.313Z,92.75
2019-01-21T19:41:56.568Z,92.80
2019-01-21T19:44:26.925Z,92.75
2019-01-21T19:46:57.559Z,92.73
2019-01-21T19:49:28.351Z,92.74
2019-01-21T19:52:00.473Z,92.75
2019-01-21T19:54:30.533Z,92.74
2019-01-21T19:57:03.714Z,92.66
2019-01-21T19:59:33.504Z,92.65
2019-01-21T20:02:03.282Z,92.64
2019-01-21T20:04:59.739Z,92.62
2019-01-21T20:07:45.724Z,92.61
2019-01-21T20:10:25.861Z,92.63
2019-01-21T20:13:04.903Z,92.59
2019-01-21T20:15:39.679Z,92.63
2019-01-21T20:18:11.543Z,92.62
2019-01-21T20:20:46.806Z,92.59
2019-01-21T20:23:20.720Z,92.57
2019-01-21T20:25:57.138Z,92.50
2019-01-21T20:28:28.728Z,92.50
2019-01-21T20:31:00.258Z,92.46
2019-01-21T20:33:31.955Z,92.44
2019-01-21T20:38:53.708Z,92.45
2019-01-21T20:41:25.153Z,92.50
2019-01-21T20:43:59.165Z,92.53
2019-01-21T20:50:26.870Z,92.59
2019-01-21T20:53:45.306Z,92.63
2019-01-21T21:00:04.535Z,92.64
2019-01-21T21:03:28.175Z,92.65
2019-01-21T21:06:38.637Z,92.65
2019-01-21T21:09:45.286Z,92.72
2019-01-21T21:12:51.663Z,92.71
2019-01-21T21:15:58.266Z,92.73
2019-01-21T21:19:11.757Z,92.53
2019-01-21T21:22:20.877Z,92.59
2019-01-21T21:25:28.361Z,92.54
2019-01-21T21:28:02.941Z,92.59
2019-01-21T21:30:33.625Z,92.58
2019-01-21T21:33:04.077Z,92.57
2019-01-21T21:35:33.888Z,92.53
2019-01-21T21:38:03.833Z,92.57
2019-01-21T21:40:34.976Z,92.62
2019-01-21T21:43:09.145Z,92.64
2019-01-21T21:45:43.756Z,92.66
2019-01-21T21:48:14.572Z,92.62
2019-01-21T21:50:44.778Z,92.61
2019-01-21T21:53:14.752Z,92.65
2019-01-21T21:55:53.933Z,92.68
2019-01-21T21:58:25.916Z,92.72
2019-01-21T22:00:55.661Z,92.70
2019-01-21T22:03:25.630Z,92.71
2019-01-21T22:05:55.535Z,92.77
2019-01-21T22:08:25.672Z,92.72
2019-01-21T22:10:55.618Z,92.73
2019-01-21T22:13:25.425Z,92.77
2019-01-21T22:15:55.256Z,92.79
2019-01-21T22:18:25.401Z,92.79
2019-01-21T22:20:55.595Z,92.78
2019-01-21T22:23:25.859Z,92.73
2019-01-21T22:25:56.112Z,92.71
2019-01-21T22:28:25.902Z,92.71
2019-01-21T22:30:56.573Z,92.65
2019-01-21T22:33:26.510Z,92.61
2019-01-21T22:35:56.623Z,92.56
2019-01-21T22:38:26.779Z,92.59
2019-01-21T22:40:59.011Z,92.58
2019-01-21T22:43:29.269Z,92.55
2019-01-21T22:45:59.564Z,92.58
2019-01-21T22:48:30.220Z,92.63
2019-01-21T22:51:00.508Z,92.68
2019-01-21T22:53:30.526Z,92.68
2019-01-21T22:56:00.731Z,92.75
2019-01-21T22:58:30.752Z,92.71
2019-01-21T23:01:05.628Z,92.68
2019-01-21T23:03:35.480Z,92.74
2019-01-21T23:06:07.297Z,92.77
2019-01-21T23:08:37.599Z,92.78
2019-01-21T23:11:07.771Z,92.82
2019-01-21T23:13:38.846Z,92.79
2019-01-21T23:16:12.827Z,92.80
2019-01-21T23:18:42.708Z,92.79
2019-01-21T23:21:12.523Z,92.80
2019-01-21T23:23:43.219Z,92.83
2019-01-21T23:26:13.340Z,92.86
2019-01-21T23:28:43.325Z,92.85
2019-01-21T23:31:13.192Z,92.85
2019-01-21T23:33:43.474Z,92.82
2019-01-21T23:36:13.551Z,92.81
2019-01-21T23:38:43.458Z,92.77
2019-01-21T23:41:13.497Z,92.73
2019-01-21T23:43:43.165Z,92.61
2019-01-21T23:46:12.882Z,92.64
2019-01-21T23:48:42.744Z,92.63
2019-01-21T23:51:13.668Z,92.65
2019-01-21T23:53:43.675Z,92.56
2019-01-21T23:56:13.496Z,92.40
2019-01-21T23:58:44.143Z,92.34
